Time;durP1;ratioP1;P1;durP2;ratioP2;P2;SDS_P1;SDS_P2;PMS_P1;PMS_P2;Temp;Humidity;BMP_temperature;BMP_pressure;BME280_temperature;BME280_humidity;BME280_pressure;Samples;Min_cycle;Max_cycle;Signal;HPM_P1;HPM_P2
2023/05/09 00:00:32;;;;;;;;;;;16.60;99.90;;;;;;5173855;27;20390;-39
2023/05/09 00:02:58;;;;;;;;;;;16.60;99.90;;;;;;5173954;27;20129;-40
2023/05/09 00:05:23;;;;;;;;;;;16.60;99.90;;;;;;5174341;27;19918;-40
2023/05/09 00:07:49;;;;;;;;;;;16.60;99.90;;;;;;5173352;27;19952;-42
2023/05/09 00:10:14;;;;;;;;;;;16.60;99.90;;;;;;5174189;27;19914;-41
2023/05/09 00:12:42;;;;;;;;;;;16.60;99.90;;;;;;5174112;27;19913;-39
2023/05/09 00:15:08;;;;;;;;;;;16.60;99.90;;;;;;5173484;27;19946;-40
2023/05/09 00:17:35;;;;;;;;;;;16.60;99.90;;;;;;5175089;27;19959;-39
2023/05/09 00:20:01;;;;;;;;;;;16.50;99.90;;;;;;5175031;27;20154;-39
2023/05/09 00:22:26;;;;;;;;;;;16.50;99.90;;;;;;5174205;27;20132;-38
2023/05/09 00:24:51;;;;;;;;;;;16.40;99.90;;;;;;5174916;27;19914;-39
2023/05/09 00:27:17;;;;;;;;;;;16.40;99.90;;;;;;5175047;27;19907;-39
2023/05/09 00:29:43;;;;;;;;;;;16.40;99.90;;;;;;5174000;27;19906;-39
2023/05/09 00:32:08;;;;;;;;;;;16.30;99.90;;;;;;5174661;27;19914;-39
2023/05/09 00:34:34;;;;;;;;;;;16.30;99.90;;;;;;5178438;27;19969;-39
2023/05/09 00:37:00;;;;;;;;;;;16.30;99.90;;;;;;5177961;27;20396;-39
2023/05/09 00:39:25;;;;;;;;;;;16.30;99.90;;;;;;5178763;27;19907;-39
2023/05/09 00:41:51;;;;;;;;;;;16.40;99.90;;;;;;5178861;27;20010;-39
2023/05/09 00:44:17;;;;;;;;;;;16.40;99.90;;;;;;5177913;27;19907;-39
2023/05/09 00:46:43;;;;;;;;;;;16.40;99.90;;;;;;5178423;27;20374;-39
2023/05/09 00:49:09;;;;;;;;;;;16.40;99.90;;;;;;5178085;27;19993;-39
2023/05/09 00:51:35;;;;;;;;;;;16.40;99.90;;;;;;5177994;27;19942;-40
2023/05/09 00:54:01;;;;;;;;;;;16.40;99.90;;;;;;5178473;27;19915;-39
2023/05/09 00:56:26;;;;;;;;;;;16.40;99.90;;;;;;5178387;27;20336;-39
2023/05/09 00:58:52;;;;;;;;;;;16.40;99.90;;;;;;5177738;27;19907;-39
2023/05/09 01:01:17;;;;;;;;;;;16.40;99.90;;;;;;5178501;27;19907;-39
2023/05/09 01:03:44;;;;;;;;;;;16.30;99.90;;;;;;5177670;27;19907;-41
2023/05/09 01:06:30;;;;;;;;;;;16.40;99.90;;;;;;5178385;27;19992;-39
2023/05/09 01:09:06;;;;;;;;;;;16.40;99.90;;;;;;5157388;27;19907;-40
2023/05/09 01:11:38;;;;;;;;;;;16.40;99.90;;;;;;5156631;27;19907;-39
2023/05/09 01:14:18;;;;;;;;;;;16.30;99.90;;;;;;5157132;27;19959;-39
2023/05/09 01:16:53;;;;;;;;;;;16.30;99.90;;;;;;5157318;27;19914;-39
2023/05/09 01:19:25;;;;;;;;;;;16.30;99.90;;;;;;5156668;27;19907;-39
2023/05/09 01:21:51;;;;;;;;;;;16.40;99.90;;;;;;5157088;27;19914;-39
2023/05/09 01:24:32;;;;;;;;;;;16.40;99.90;;;;;;5157313;27;20018;-40
2023/05/09 01:27:07;;;;;;;;;;;16.40;99.90;;;;;;5156340;27;19953;-40
2023/05/09 01:29:35;;;;;;;;;;;16.40;99.90;;;;;;5156956;27;19907;-39
2023/05/09 01:32:02;;;;;;;;;;;16.40;99.90;;;;;;5156094;27;19978;-39
2023/05/09 01:34:28;;;;;;;;;;;16.40;99.90;;;;;;5156948;27;19919;-39
2023/05/09 01:36:56;;;;;;;;;;;16.40;99.90;;;;;;5156728;27;19914;-40
2023/05/09 01:39:23;;;;;;;;;;;16.30;99.90;;;;;;5156238;27;19907;-39
2023/05/09 01:41:49;;;;;;;;;;;16.30;99.90;;;;;;5156897;27;19907;-39
2023/05/09 01:44:15;;;;;;;;;;;16.30;99.90;;;;;;5168389;27;19910;-40
2023/05/09 01:46:41;;;;;;;;;;;16.30;99.90;;;;;;5176528;27;19911;-39
2023/05/09 01:49:08;;;;;;;;;;;16.20;99.90;;;;;;5177500;27;19917;-39
2023/05/09 01:51:34;;;;;;;;;;;16.20;99.90;;;;;;5177191;27;19907;-40
2023/05/09 01:54:00;;;;;;;;;;;16.10;99.90;;;;;;5176101;27;19963;-39
2023/05/09 01:56:26;;;;;;;;;;;16.10;99.90;;;;;;5177049;27;19907;-40
2023/05/09 01:58:54;;;;;;;;;;;16.10;99.90;;;;;;5177340;27;19907;-39
2023/05/09 02:01:20;;;;;;;;;;;16.10;99.90;;;;;;5175959;27;19914;-39
2023/05/09 02:03:49;;;;;;;;;;;16.00;99.90;;;;;;5176625;27;19911;-40
2023/05/09 02:06:16;;;;;;;;;;;16.00;99.90;;;;;;5177159;27;19907;-39
2023/05/09 02:08:42;;;;;;;;;;;16.00;99.90;;;;;;5175917;27;19922;-39
2023/05/09 02:11:07;;;;;;;;;;;16.00;99.90;;;;;;5177086;27;19906;-39
2023/05/09 02:13:33;;;;;;;;;;;16.00;99.90;;;;;;5176278;27;19919;-39
2023/05/09 02:15:59;;;;;;;;;;;15.90;99.90;;;;;;5175333;27;19918;-40
2023/05/09 02:18:25;;;;;;;;;;;15.90;99.90;;;;;;5176114;27;19917;-40
2023/05/09 02:20:50;;;;;;;;;;;15.90;99.90;;;;;;5176807;27;19907;-39
2023/05/09 02:23:16;;;;;;;;;;;15.90;99.90;;;;;;5175437;27;19922;-39
2023/05/09 02:25:42;;;;;;;;;;;15.90;99.90;;;;;;5176524;27;20386;-41
2023/05/09 02:28:08;;;;;;;;;;;15.90;99.90;;;;;;5175789;27;20391;-39
2023/05/09 02:30:35;;;;;;;;;;;15.80;99.90;;;;;;5176530;27;19954;-40
2023/05/09 02:33:03;;;;;;;;;;;15.80;99.90;;;;;;5176238;27;19919;-40
2023/05/09 02:35:28;;;;;;;;;;;15.80;99.90;;;;;;5175874;27;19907;-39
2023/05/09 02:37:54;;;;;;;;;;;15.80;99.90;;;;;;5176390;27;20273;-39
2023/05/09 02:40:21;;;;;;;;;;;15.80;99.90;;;;;;5176328;27;19907;-40
2023/05/09 02:42:46;;;;;;;;;;;15.70;99.90;;;;;;5175703;27;19959;-39
2023/05/09 02:45:12;;;;;;;;;;;15.70;99.90;;;;;;5176282;27;19911;-39
2023/05/09 02:47:37;;;;;;;;;;;15.70;99.90;;;;;;5176328;27;19913;-39
2023/05/09 02:50:04;;;;;;;;;;;15.70;99.90;;;;;;5175506;27;19907;-39
2023/05/09 02:52:29;;;;;;;;;;;15.70;99.90;;;;;;5176362;27;19950;-41
2023/05/09 02:54:55;;;;;;;;;;;15.60;99.90;;;;;;5176028;27;19966;-40
2023/05/09 02:57:20;;;;;;;;;;;15.60;99.90;;;;;;5175177;27;19950;-40
2023/05/09 02:59:45;;;;;;;;;;;15.60;99.90;;;;;;5176051;27;19906;-41
2023/05/09 03:02:11;;;;;;;;;;;15.60;99.90;;;;;;5176312;27;19907;-39
2023/05/09 03:04:36;;;;;;;;;;;15.50;99.90;;;;;;5175279;27;19906;-41
2023/05/09 03:07:02;;;;;;;;;;;15.50;99.90;;;;;;5175927;27;19907;-41
2023/05/09 03:09:28;;;;;;;;;;;15.50;99.90;;;;;;5176107;27;19914;-40
2023/05/09 03:11:54;;;;;;;;;;;15.50;99.90;;;;;;5175311;27;20365;-39
2023/05/09 03:14:20;;;;;;;;;;;15.40;99.90;;;;;;5175499;27;20010;-39
2023/05/09 03:16:45;;;;;;;;;;;15.40;99.90;;;;;;5174714;27;19997;-39
2023/05/09 03:19:11;;;;;;;;;;;15.40;99.90;;;;;;5173990;27;19907;-39
2023/05/09 03:21:36;;;;;;;;;;;15.40;99.90;;;;;;5174726;27;19911;-40
2023/05/09 03:24:03;;;;;;;;;;;15.40;99.90;;;;;;5173130;27;19974;-40
2023/05/09 03:26:29;;;;;;;;;;;15.40;99.90;;;;;;5173206;27;19922;-40
2023/05/09 03:28:54;;;;;;;;;;;15.40;99.90;;;;;;5173065;27;19930;-39
2023/05/09 03:31:20;;;;;;;;;;;15.30;99.90;;;;;;5173180;27;19915;-40
2023/05/09 03:33:45;;;;;;;;;;;15.40;99.90;;;;;;5173430;27;19927;-40
2023/05/09 03:36:11;;;;;;;;;;;15.40;99.90;;;;;;5173972;27;20254;-39
2023/05/09 03:38:36;;;;;;;;;;;15.30;99.90;;;;;;5172383;27;20755;-39
2023/05/09 03:41:02;;;;;;;;;;;15.30;99.90;;;;;;5173933;27;19938;-40
2023/05/09 03:43:28;;;;;;;;;;;15.30;99.90;;;;;;5173722;27;19911;-40
2023/05/09 03:45:53;;;;;;;;;;;15.30;99.90;;;;;;5172269;27;19911;-40
2023/05/09 03:48:19;;;;;;;;;;;15.30;99.90;;;;;;5173768;27;20395;-39
2023/05/09 03:50:44;;;;;;;;;;;15.30;99.90;;;;;;5173795;27;19918;-40
2023/05/09 03:53:10;;;;;;;;;;;15.30;99.90;;;;;;5172856;27;19954;-39
2023/05/09 03:55:35;;;;;;;;;;;15.30;99.90;;;;;;5174690;27;19907;-40
2023/05/09 03:58:01;;;;;;;;;;;15.30;99.90;;;;;;5175135;27;19953;-40
2023/05/09 04:00:27;;;;;;;;;;;15.20;99.90;;;;;;5174403;27;19907;-39
2023/05/09 04:02:52;;;;;;;;;;;15.20;99.90;;;;;;5175181;27;20421;-39
2023/05/09 04:05:18;;;;;;;;;;;15.20;99.90;;;;;;5175246;27;19907;-41
2023/05/09 04:07:43;;;;;;;;;;;15.20;99.90;;;;;;5175036;27;19906;-40
2023/05/09 04:10:09;;;;;;;;;;;15.20;99.90;;;;;;5179445;27;19907;-41
2023/05/09 04:12:34;;;;;;;;;;;15.20;99.90;;;;;;5179568;27;19997;-40
2023/05/09 04:15:00;;;;;;;;;;;15.20;99.90;;;;;;5162110;27;20393;-40
2023/05/09 04:17:25;;;;;;;;;;;15.10;99.90;;;;;;5157536;27;19930;-40
2023/05/09 04:19:51;;;;;;;;;;;15.10;99.90;;;;;;5157506;27;20381;-41
2023/05/09 04:22:17;;;;;;;;;;;15.10;99.90;;;;;;5156720;27;19907;-40
2023/05/09 04:24:42;;;;;;;;;;;15.10;99.90;;;;;;5158200;27;19915;-39
2023/05/09 04:27:08;;;;;;;;;;;15.10;99.90;;;;;;5158248;27;19913;-40
2023/05/09 04:29:34;;;;;;;;;;;15.10;99.90;;;;;;5157482;27;20378;-39
2023/05/09 04:32:03;;;;;;;;;;;15.10;99.90;;;;;;5166856;27;19954;-40
2023/05/09 04:34:29;;;;;;;;;;;15.10;99.90;;;;;;5178757;27;19919;-40
2023/05/09 04:36:54;;;;;;;;;;;15.20;99.90;;;;;;5178152;27;19917;-40
2023/05/09 04:39:20;;;;;;;;;;;15.10;99.90;;;;;;5178560;27;20365;-40
2023/05/09 04:41:46;;;;;;;;;;;15.10;99.90;;;;;;5177626;27;19913;-42
2023/05/09 04:44:12;;;;;;;;;;;15.10;99.90;;;;;;5178167;27;20013;-42
2023/05/09 04:46:38;;;;;;;;;;;15.20;99.90;;;;;;5178557;27;19961;-39
2023/05/09 04:49:03;;;;;;;;;;;15.20;99.90;;;;;;5178032;27;19952;-39
2023/05/09 04:51:28;;;;;;;;;;;15.20;99.90;;;;;;5178552;27;19914;-40
2023/05/09 04:53:54;;;;;;;;;;;15.20;99.90;;;;;;5178751;27;20051;-40
2023/05/09 04:56:20;;;;;;;;;;;15.30;99.90;;;;;;5177527;27;20332;-41
2023/05/09 04:58:46;;;;;;;;;;;15.30;99.90;;;;;;5178471;27;19907;-41
2023/05/09 05:01:11;;;;;;;;;;;15.30;99.90;;;;;;5178565;27;20417;-40
2023/05/09 05:03:37;;;;;;;;;;;15.40;99.90;;;;;;5177692;27;19907;-40
2023/05/09 05:06:02;;;;;;;;;;;15.50;99.90;;;;;;5178348;27;19919;-40
2023/05/09 05:08:28;;;;;;;;;;;15.50;99.90;;;;;;5178466;27;20376;-41
2023/05/09 05:10:53;;;;;;;;;;;15.50;99.90;;;;;;5177545;27;20416;-40
2023/05/09 05:13:20;;;;;;;;;;;15.50;99.90;;;;;;5178226;27;19922;-40
2023/05/09 05:15:45;;;;;;;;;;;15.60;99.90;;;;;;5178164;27;19914;-40
2023/05/09 05:18:11;;;;;;;;;;;15.60;99.90;;;;;;5177502;27;20317;-40
2023/05/09 05:20:39;;;;;;;;;;;15.60;99.90;;;;;;5175610;27;19978;-40
2023/05/09 05:23:04;;;;;;;;;;;15.70;99.90;;;;;;5163491;27;19950;-40
2023/05/09 05:25:30;;;;;;;;;;;15.70;99.90;;;;;;5163028;27;19949;-40
2023/05/09 05:27:55;;;;;;;;;;;15.70;99.90;;;;;;5174219;27;20380;-42
2023/05/09 05:30:21;;;;;;;;;;;15.70;99.90;;;;;;5171057;27;19911;-42
2023/05/09 05:32:46;;;;;;;;;;;15.70;99.90;;;;;;5164444;27;20021;-40
2023/05/09 05:35:12;;;;;;;;;;;15.70;99.90;;;;;;5176079;27;19922;-40
2023/05/09 05:37:38;;;;;;;;;;;15.70;99.90;;;;;;5175748;27;19919;-39
2023/05/09 05:40:04;;;;;;;;;;;15.70;99.90;;;;;;5175268;27;19966;-39
2023/05/09 05:42:30;;;;;;;;;;;15.70;99.90;;;;;;5176190;27;19907;-40
2023/05/09 05:44:55;;;;;;;;;;;15.80;99.90;;;;;;5175346;27;20020;-40
2023/05/09 05:47:21;;;;;;;;;;;15.80;99.90;;;;;;5175297;27;19918;-40
2023/05/09 05:49:46;;;;;;;;;;;15.80;99.90;;;;;;5177014;27;19952;-40
2023/05/09 05:52:12;;;;;;;;;;;15.80;99.90;;;;;;5176737;27;19907;-40
2023/05/09 05:54:37;;;;;;;;;;;15.80;99.90;;;;;;5177167;27;19922;-40
2023/05/09 05:57:03;;;;;;;;;;;15.90;99.90;;;;;;5166143;27;19911;-39
2023/05/09 05:59:28;;;;;;;;;;;15.90;99.90;;;;;;5173830;27;19954;-40
2023/05/09 06:01:54;;;;;;;;;;;15.90;99.90;;;;;;5162488;27;19954;-41
2023/05/09 06:04:19;;;;;;;;;;;15.90;99.90;;;;;;5173861;27;19933;-40
2023/05/09 06:06:45;;;;;;;;;;;15.90;99.90;;;;;;5172869;27;19911;-40
2023/05/09 06:09:11;;;;;;;;;;;16.00;99.90;;;;;;5176449;27;19959;-40
2023/05/09 06:11:36;;;;;;;;;;;16.00;99.90;;;;;;5176260;27;19911;-40
2023/05/09 06:14:02;;;;;;;;;;;16.00;99.90;;;;;;5175389;27;19922;-40
2023/05/09 06:16:27;;;;;;;;;;;16.10;99.90;;;;;;5174998;27;19915;-41
2023/05/09 06:18:53;;;;;;;;;;;16.10;99.90;;;;;;5169178;27;19973;-40
2023/05/09 06:21:18;;;;;;;;;;;16.10;99.90;;;;;;5169701;27;19938;-41
2023/05/09 06:23:44;;;;;;;;;;;16.10;99.90;;;;;;5165983;27;19997;-40
2023/05/09 06:26:09;;;;;;;;;;;16.20;99.90;;;;;;5176440;27;20341;-40
2023/05/09 06:28:35;;;;;;;;;;;16.20;99.90;;;;;;5175871;27;20375;-40
2023/05/09 06:31:00;;;;;;;;;;;16.20;99.90;;;;;;5175278;27;20413;-40
2023/05/09 06:33:26;;;;;;;;;;;16.20;99.90;;;;;;5175744;27;19919;-40
2023/05/09 06:35:51;;;;;;;;;;;16.20;99.90;;;;;;5175297;27;19918;-40
2023/05/09 06:38:17;;;;;;;;;;;16.30;99.90;;;;;;5175918;27;19914;-40
2023/05/09 06:40:42;;;;;;;;;;;16.30;99.90;;;;;;5176192;27;19971;-40
2023/05/09 06:43:08;;;;;;;;;;;16.40;99.90;;;;;;5175738;27;20284;-41
2023/05/09 06:45:34;;;;;;;;;;;16.40;99.90;;;;;;5176515;27;19913;-40
2023/05/09 06:47:59;;;;;;;;;;;16.40;99.90;;;;;;5176307;27;20371;-40
2023/05/09 06:50:25;;;;;;;;;;;16.40;99.90;;;;;;5175607;27;19918;-40
2023/05/09 06:52:50;;;;;;;;;;;16.40;99.90;;;;;;5176309;27;19914;-40
2023/05/09 06:55:16;;;;;;;;;;;16.40;99.90;;;;;;5174945;27;19919;-42
2023/05/09 06:57:41;;;;;;;;;;;16.50;99.90;;;;;;5176266;27;19914;-41
2023/05/09 07:00:08;;;;;;;;;;;16.50;99.90;;;;;;5176105;27;19914;-42
2023/05/09 07:02:33;;;;;;;;;;;16.40;99.90;;;;;;5175414;27;19906;-40
2023/05/09 07:04:59;;;;;;;;;;;16.50;99.90;;;;;;5175753;27;20420;-40
2023/05/09 07:07:24;;;;;;;;;;;16.40;99.90;;;;;;5176003;27;19907;-41
2023/05/09 07:09:50;;;;;;;;;;;16.40;99.90;;;;;;5175070;27;19906;-40
2023/05/09 07:12:15;;;;;;;;;;;16.50;99.90;;;;;;5175959;27;19965;-40
2023/05/09 07:14:41;;;;;;;;;;;16.50;99.90;;;;;;5175799;27;19915;-40
2023/05/09 07:17:07;;;;;;;;;;;16.40;99.90;;;;;;5175033;27;19997;-40
2023/05/09 07:19:33;;;;;;;;;;;16.40;99.90;;;;;;5175798;27;20372;-41
2023/05/09 07:21:58;;;;;;;;;;;16.40;99.90;;;;;;5175218;27;19910;-40
2023/05/09 07:24:24;;;;;;;;;;;16.40;99.90;;;;;;5174860;27;19907;-40
2023/05/09 07:26:49;;;;;;;;;;;16.50;99.90;;;;;;5174790;27;19907;-40
2023/05/09 07:29:16;;;;;;;;;;;16.40;99.90;;;;;;5160158;27;19933;-40
2023/05/09 07:31:41;;;;;;;;;;;16.40;99.90;;;;;;5163714;27;19911;-40
2023/05/09 07:34:07;;;;;;;;;;;16.40;99.90;;;;;;5157106;27;19925;-40
2023/05/09 07:36:33;;;;;;;;;;;16.50;99.90;;;;;;5161895;27;19912;-40
2023/05/09 07:38:59;;;;;;;;;;;16.50;99.90;;;;;;5167953;27;19911;-40
2023/05/09 07:41:25;;;;;;;;;;;16.50;99.90;;;;;;5171096;27;19917;-40
2023/05/09 07:43:51;;;;;;;;;;;16.60;99.90;;;;;;5169078;27;19917;-40
2023/05/09 07:46:16;;;;;;;;;;;16.60;99.90;;;;;;5156074;27;19911;-40
2023/05/09 07:48:42;;;;;;;;;;;16.60;99.90;;;;;;5171227;27;19915;-41
2023/05/09 07:51:07;;;;;;;;;;;16.70;99.90;;;;;;5174444;27;20346;-40
2023/05/09 07:53:33;;;;;;;;;;;16.70;99.90;;;;;;5173618;27;19919;-40
2023/05/09 07:55:59;;;;;;;;;;;16.70;99.90;;;;;;5168874;27;19981;-41
2023/05/09 07:58:24;;;;;;;;;;;16.80;99.90;;;;;;5171714;27;19915;-41
2023/05/09 08:00:50;;;;;;;;;;;16.80;99.90;;;;;;5173893;27;19922;-41
2023/05/09 08:03:15;;;;;;;;;;;16.90;99.90;;;;;;5174803;27;20013;-41
2023/05/09 08:05:41;;;;;;;;;;;16.90;99.90;;;;;;5173953;27;19907;-40
2023/05/09 08:08:06;;;;;;;;;;;17.00;99.90;;;;;;5174417;27;19910;-40
2023/05/09 08:10:32;;;;;;;;;;;17.10;99.90;;;;;;5173969;27;19976;-40
2023/05/09 08:12:58;;;;;;;;;;;17.20;99.90;;;;;;5170747;27;19922;-40
2023/05/09 08:15:23;;;;;;;;;;;17.20;99.90;;;;;;5174380;27;20280;-40
2023/05/09 08:17:48;;;;;;;;;;;17.30;99.90;;;;;;5173185;27;19987;-40
2023/05/09 08:20:14;;;;;;;;;;;17.30;99.90;;;;;;5168339;27;20051;-40
2023/05/09 08:22:39;;;;;;;;;;;17.40;99.90;;;;;;5171214;27;19999;-39
2023/05/09 08:25:06;;;;;;;;;;;17.40;99.90;;;;;;5174327;27;19911;-41
2023/05/09 08:27:31;;;;;;;;;;;17.40;99.90;;;;;;5173750;27;20299;-40
2023/05/09 08:29:57;;;;;;;;;;;17.50;99.90;;;;;;5172389;27;20357;-41
2023/05/09 08:32:22;;;;;;;;;;;17.60;99.90;;;;;;5168807;27;19918;-40
2023/05/09 08:34:48;;;;;;;;;;;17.60;99.90;;;;;;5172269;27;19919;-40
2023/05/09 08:37:13;;;;;;;;;;;17.60;99.90;;;;;;5173041;27;19915;-39
2023/05/09 08:39:38;;;;;;;;;;;17.70;99.90;;;;;;5174481;27;19911;-40
2023/05/09 08:42:04;;;;;;;;;;;17.80;99.90;;;;;;5169965;27;19921;-40
2023/05/09 08:44:31;;;;;;;;;;;17.80;99.90;;;;;;5162963;27;19950;-39
2023/05/09 08:47:02;;;;;;;;;;;17.80;99.90;;;;;;5154931;27;20365;-40
2023/05/09 08:49:28;;;;;;;;;;;17.80;99.90;;;;;;5158273;27;20364;-40
2023/05/09 08:51:54;;;;;;;;;;;17.80;99.90;;;;;;5155736;27;19918;-40
2023/05/09 08:54:20;;;;;;;;;;;17.80;99.90;;;;;;5156851;27;20357;-41
2023/05/09 08:56:46;;;;;;;;;;;17.90;99.90;;;;;;5171334;27;19919;-39
2023/05/09 08:59:12;;;;;;;;;;;18.00;99.90;;;;;;5172749;27;19970;-40
2023/05/09 09:01:38;;;;;;;;;;;18.10;99.90;;;;;;5167009;27;19922;-40
2023/05/09 09:04:04;;;;;;;;;;;18.20;99.90;;;;;;5174324;27;19981;-40
2023/05/09 09:06:32;;;;;;;;;;;18.30;99.90;;;;;;5176058;27;20254;-40
2023/05/09 09:08:57;;;;;;;;;;;18.40;99.90;;;;;;5174764;27;19950;-40
2023/05/09 09:11:23;;;;;;;;;;;18.50;99.90;;;;;;5177644;27;19957;-40
2023/05/09 09:13:50;;;;;;;;;;;18.50;99.90;;;;;;5177503;27;19911;-40
2023/05/09 09:16:19;;;;;;;;;;;18.50;99.90;;;;;;5167235;27;19925;-40
2023/05/09 09:18:45;;;;;;;;;;;18.60;99.90;;;;;;5177511;27;19907;-40
2023/05/09 09:21:12;;;;;;;;;;;18.60;99.90;;;;;;5176941;27;19966;-39
2023/05/09 09:23:40;;;;;;;;;;;18.70;99.90;;;;;;5176117;27;19914;-40
2023/05/09 09:26:05;;;;;;;;;;;18.70;99.90;;;;;;5176130;27;19946;-41
2023/05/09 09:28:31;;;;;;;;;;;18.90;99.90;;;;;;5177741;27;20014;-40
2023/05/09 09:30:57;;;;;;;;;;;19.00;99.90;;;;;;5173736;27;20057;-40
2023/05/09 09:33:23;;;;;;;;;;;19.10;99.90;;;;;;5155571;27;19920;-40
2023/05/09 09:35:49;;;;;;;;;;;19.20;99.90;;;;;;5173437;27;19911;-40
2023/05/09 09:38:18;;;;;;;;;;;19.40;99.90;;;;;;5173565;27;19917;-41
2023/05/09 09:41:02;;;;;;;;;;;19.40;99.90;;;;;;5178088;27;19907;-41
2023/05/09 09:43:29;;;;;;;;;;;19.50;99.90;;;;;;5160215;27;19907;-41
2023/05/09 09:45:55;;;;;;;;;;;19.50;99.90;;;;;;5156489;27;20265;-40
2023/05/09 09:48:25;;;;;;;;;;;19.40;99.90;;;;;;5157329;27;19912;-39
2023/05/09 09:50:52;;;;;;;;;;;19.40;99.90;;;;;;5157240;27;20303;-41
2023/05/09 09:53:18;;;;;;;;;;;19.30;99.90;;;;;;5156706;27;19907;-40
2023/05/09 09:55:50;;;;;;;;;;;19.30;99.90;;;;;;5157224;27;19907;-41
2023/05/09 09:58:17;;;;;;;;;;;19.20;99.90;;;;;;5156616;27;19914;-39
2023/05/09 10:00:43;;;;;;;;;;;18.90;99.90;;;;;;5156874;27;20010;-39
2023/05/09 10:03:13;;;;;;;;;;;18.80;99.90;;;;;;5156823;27;19946;-40
2023/05/09 10:05:39;;;;;;;;;;;18.70;99.90;;;;;;5155343;27;19907;-40
2023/05/09 10:08:06;;;;;;;;;;;18.60;99.90;;;;;;5164729;27;19946;-40
2023/05/09 10:10:33;;;;;;;;;;;18.70;99.90;;;;;;5177589;27;19914;-39
2023/05/09 10:13:00;;;;;;;;;;;18.90;99.90;;;;;;5176963;27;19907;-41
2023/05/09 10:15:27;;;;;;;;;;;19.10;99.90;;;;;;5162171;27;19926;-42
2023/05/09 10:17:55;;;;;;;;;;;19.20;99.90;;;;;;5176989;27;20284;-40
2023/05/09 10:20:21;;;;;;;;;;;19.40;99.90;;;;;;5170661;27;20359;-40
2023/05/09 10:22:47;;;;;;;;;;;19.60;99.90;;;;;;5166238;27;19994;-39
2023/05/09 10:25:16;;;;;;;;;;;19.80;99.90;;;;;;5156268;27;19976;-41
2023/05/09 10:27:43;;;;;;;;;;;20.00;99.90;;;;;;5155461;27;20292;-40
2023/05/09 10:30:15;;;;;;;;;;;20.00;99.90;;;;;;5156248;27;19908;-40
2023/05/09 10:32:50;;;;;;;;;;;20.10;99.90;;;;;;5156045;27;19919;-42
2023/05/09 10:35:17;;;;;;;;;;;20.10;99.90;;;;;;5156955;27;19929;-39
2023/05/09 10:37:45;;;;;;;;;;;20.30;99.90;;;;;;5162889;27;19914;-39
2023/05/09 10:40:13;;;;;;;;;;;20.40;99.90;;;;;;5168658;27;19911;-39
2023/05/09 10:42:42;;;;;;;;;;;20.40;99.90;;;;;;5156050;27;20407;-39
2023/05/09 10:45:09;;;;;;;;;;;20.40;99.90;;;;;;5159342;27;19929;-40
2023/05/09 10:47:34;;;;;;;;;;;20.40;99.90;;;;;;5172748;27;19907;-41
2023/05/09 10:50:00;;;;;;;;;;;20.30;99.90;;;;;;5174833;27;20010;-40
2023/05/09 10:52:30;;;;;;;;;;;20.40;99.90;;;;;;5163480;27;19918;-41
2023/05/09 10:55:02;;;;;;;;;;;20.40;99.90;;;;;;5167593;27;20078;-41
2023/05/09 10:57:28;;;;;;;;;;;20.40;99.90;;;;;;5169911;27;20357;-41
2023/05/09 10:59:55;;;;;;;;;;;20.50;99.90;;;;;;5162362;27;19911;-40
2023/05/09 11:02:20;;;;;;;;;;;20.50;99.90;;;;;;5171891;27;19910;-40
2023/05/09 11:04:46;;;;;;;;;;;20.50;99.90;;;;;;5174541;27;19911;-39
2023/05/09 11:07:22;;;;;;;;;;;20.50;99.90;;;;;;5173957;27;20400;-40
2023/05/09 11:09:51;;;;;;;;;;;20.40;99.90;;;;;;5171392;27;19913;-41
2023/05/09 11:12:19;;;;;;;;;;;20.30;99.90;;;;;;5171660;27;19922;-40
2023/05/09 11:14:50;;;;;;;;;;;20.10;99.90;;;;;;5173536;27;19943;-40
2023/05/09 11:17:21;;;;;;;;;;;20.00;99.90;;;;;;5172396;27;19915;-41
2023/05/09 11:19:47;;;;;;;;;;;19.90;99.90;;;;;;5163531;27;19911;-40
2023/05/09 11:22:18;;;;;;;;;;;19.80;99.90;;;;;;5165038;27;19963;-39
2023/05/09 11:24:45;;;;;;;;;;;19.90;99.90;;;;;;5175915;27;19953;-40
2023/05/09 11:27:20;;;;;;;;;;;20.10;99.90;;;;;;5172874;27;19958;-39
2023/05/09 11:29:55;;;;;;;;;;;20.20;99.90;;;;;;5171096;27;19925;-40
2023/05/09 11:32:26;;;;;;;;;;;20.30;99.90;;;;;;5172248;27;20009;-40
2023/05/09 11:34:51;;;;;;;;;;;20.30;99.90;;;;;;5173640;27;20014;-40
2023/05/09 11:37:18;;;;;;;;;;;20.30;99.90;;;;;;5173471;27;20001;-40
2023/05/09 11:40:12;;;;;;;;;;;20.20;99.90;;;;;;5175272;27;19917;-39
2023/05/09 11:42:40;;;;;;;;;;;20.20;99.90;;;;;;5156408;27;19911;-40
2023/05/09 11:45:06;;;;;;;;;;;20.10;99.90;;;;;;5166023;27;19923;-39
2023/05/09 11:47:32;;;;;;;;;;;20.00;99.90;;;;;;5171740;27;20279;-41
2023/05/09 11:49:58;;;;;;;;;;;19.80;99.90;;;;;;5168225;27;19907;-39
2023/05/09 11:52:24;;;;;;;;;;;19.70;99.90;;;;;;5172183;27;19917;-39
2023/05/09 11:54:50;;;;;;;;;;;19.60;99.90;;;;;;5174299;27;19967;-40
2023/05/09 11:57:18;;;;;;;;;;;19.60;99.90;;;;;;5174826;27;19914;-40
2023/05/09 11:59:44;;;;;;;;;;;19.60;99.90;;;;;;5174493;27;19907;-39
2023/05/09 12:02:10;;;;;;;;;;;19.80;99.90;;;;;;5164253;27;19966;-40
2023/05/09 12:04:35;;;;;;;;;;;19.90;99.90;;;;;;5174412;27;20059;-41
2023/05/09 12:07:01;;;;;;;;;;;19.90;99.90;;;;;;5173711;27;19906;-40
2023/05/09 12:09:33;;;;;;;;;;;20.00;99.90;;;;;;5174188;27;19922;-39
2023/05/09 12:11:59;;;;;;;;;;;20.10;99.90;;;;;;5159294;27;19917;-40
2023/05/09 12:14:28;;;;;;;;;;;20.20;99.90;;;;;;5162351;27;19926;-40
2023/05/09 12:16:53;;;;;;;;;;;20.30;99.90;;;;;;5174487;27;19938;-40
2023/05/09 12:19:19;;;;;;;;;;;20.30;99.90;;;;;;5169397;27;19959;-40
2023/05/09 12:21:45;;;;;;;;;;;20.40;99.90;;;;;;5174193;27;19918;-39
2023/05/09 12:24:10;;;;;;;;;;;20.50;99.90;;;;;;5174139;27;20409;-40
2023/05/09 12:26:36;;;;;;;;;;;20.50;99.90;;;;;;5172820;27;19914;-39
2023/05/09 12:29:01;;;;;;;;;;;20.50;99.90;;;;;;5175345;27;19917;-41
2023/05/09 12:31:27;;;;;;;;;;;20.50;99.90;;;;;;5166476;27;19954;-40
2023/05/09 12:33:53;;;;;;;;;;;20.60;99.90;;;;;;5163954;27;19926;-41
2023/05/09 12:36:18;;;;;;;;;;;20.60;99.90;;;;;;5167126;27;20292;-41
2023/05/09 12:38:53;;;;;;;;;;;20.70;99.90;;;;;;5156671;27;19907;-41
2023/05/09 12:41:20;;;;;;;;;;;20.70;99.90;;;;;;5172583;27;19911;-40
2023/05/09 12:43:50;;;;;;;;;;;20.80;99.90;;;;;;5178392;27;19928;-41
2023/05/09 12:46:19;;;;;;;;;;;20.90;99.90;;;;;;5177864;27;20039;-41
2023/05/09 12:48:46;;;;;;;;;;;20.80;99.90;;;;;;5176834;27;20056;-42
2023/05/09 12:51:11;;;;;;;;;;;20.90;99.90;;;;;;5177962;27;19946;-41
2023/05/09 12:53:38;;;;;;;;;;;20.90;99.90;;;;;;5177295;27;19984;-41
2023/05/09 12:56:06;;;;;;;;;;;20.80;99.90;;;;;;5176797;27;19960;-40
2023/05/09 12:58:32;;;;;;;;;;;20.80;99.90;;;;;;5174825;27;20353;-40
2023/05/09 13:00:57;;;;;;;;;;;20.80;99.90;;;;;;5160279;27;19921;-42
2023/05/09 13:03:24;;;;;;;;;;;20.80;99.90;;;;;;5160867;27;19970;-40
2023/05/09 13:05:57;;;;;;;;;;;20.90;99.90;;;;;;5159570;27;20279;-40
2023/05/09 13:08:23;;;;;;;;;;;20.90;99.90;;;;;;5176250;27;21532;-39
2023/05/09 13:10:48;;;;;;;;;;;20.90;99.90;;;;;;5158837;27;20353;-41
2023/05/09 13:13:15;;;;;;;;;;;20.80;99.90;;;;;;5157544;27;19934;-41
2023/05/09 13:15:42;;;;;;;;;;;20.70;99.90;;;;;;5176758;27;19956;-40
2023/05/09 13:18:07;;;;;;;;;;;20.50;99.90;;;;;;5176654;27;19933;-41
2023/05/09 13:20:32;;;;;;;;;;;20.30;99.90;;;;;;5175820;27;20735;-40
2023/05/09 13:22:58;;;;;;;;;;;20.10;99.90;;;;;;5176730;27;19974;-40
2023/05/09 13:25:23;;;;;;;;;;;19.90;99.90;;;;;;5176648;27;19942;-41
2023/05/09 13:27:50;;;;;;;;;;;19.70;99.90;;;;;;5176145;27;20432;-42
2023/05/09 13:30:15;;;;;;;;;;;19.60;99.90;;;;;;5175609;27;19910;-40
2023/05/09 13:32:41;;;;;;;;;;;19.50;99.90;;;;;;5176680;27;19923;-40
2023/05/09 13:35:06;;;;;;;;;;;19.40;99.90;;;;;;5176488;27;19972;-39
2023/05/09 13:37:35;;;;;;;;;;;19.30;99.90;;;;;;5176259;27;20249;-40
2023/05/09 13:40:01;;;;;;;;;;;19.20;99.90;;;;;;5176494;27;19911;-42
2023/05/09 13:42:26;;;;;;;;;;;19.10;99.90;;;;;;5177051;27;20018;-40
2023/05/09 13:44:52;;;;;;;;;;;19.00;99.90;;;;;;5177177;27;20375;-40
2023/05/09 13:47:17;;;;;;;;;;;19.00;99.90;;;;;;5177250;27;19911;-39
2023/05/09 13:49:43;;;;;;;;;;;19.00;99.90;;;;;;5177168;27;19938;-40
2023/05/09 13:52:08;;;;;;;;;;;19.00;99.90;;;;;;5176915;27;19907;-40
2023/05/09 13:54:34;;;;;;;;;;;19.00;99.90;;;;;;5177645;27;20322;-40
2023/05/09 13:57:00;;;;;;;;;;;19.00;99.90;;;;;;5177502;27;19914;-40
2023/05/09 13:59:26;;;;;;;;;;;19.00;99.90;;;;;;5176579;27;19969;-39
2023/05/09 14:01:51;;;;;;;;;;;19.00;99.90;;;;;;5169678;27;20365;-41
2023/05/09 14:04:17;;;;;;;;;;;19.00;99.90;;;;;;5164716;27;19907;-43
2023/05/09 14:06:47;;;;;;;;;;;19.10;99.90;;;;;;5158235;27;19911;-40
2023/05/09 14:09:14;;;;;;;;;;;19.10;99.90;;;;;;5156205;27;19998;-40
2023/05/09 14:11:40;;;;;;;;;;;19.00;99.90;;;;;;5156226;27;19911;-40